Brevig Mission Airport, AK

11:41 AM AKST on January 30, 2015 (GMT -0900)
Brevig Mission Airport | Change Station
CLOSE
Current Station
Airport
Location: Brevig Mission Airport,
Elevation: 39 ft
Nearby Weather Stations
Active Advisory: Winter Weather Advisory

Elev 39 ft 65.33 °N, 166.47 °W | Updated 43 minutes ago

Overcast
Overcast
22 °F
Feels Like 4 °F
N
30
Wind Variable Wind from SSW

Today
High -- | Low -- °F
--% Chance of Precip.
Yesterday
High -- | Low -- °F
Precip. -- in
11:02 AM 5:37 PM
Waxing Gibbous, 85% visible
Pressure 30.56 in
Visibility 7.0 miles
Clouds Overcast 2700 ft
Windchill 4 °F
Dew Point 20 °F
Humidity 92%
Rainfall 0.00 in
Snow Depth Not available.
UV 0 out of 12
Pollen Not available.
Air Quality Not available.
Flu Activity Not available.
METAR PFKT 301958Z AUTO 20026KT 7SM OVC027 M06/M07 A3056 RMK AO2 PK WND 20033/1946 SLP348 T10561067 FZRANO

More Conditions Fewer Conditions

Pressure 30.56 in
Visibility 7.0 miles
Clouds Overcast 2700 ft
Windchill 4 °F
Dew Point 20 °F
Humidity 92%
Rainfall 0.00 in
Snow Depth Not available.
UV 0 out of 12
Pollen Not available.
Air Quality Not available.
Flu Activity Not available.
METAR PFKT 301958Z AUTO 20026KT 7SM OVC027 M06/M07 A3056 RMK AO2 PK WND 20033/1946 SLP348 T10561067 FZRANO

More Conditions Fewer Conditions

10-Day Weather Forecast

Almanac

Astronomy

Jan. 30, 2015 Rise Set
Actual Time
Civil Twilight
Nautical Twilight
Astronomical Twilight
Moon
Length of Visible Light
Length of Day
Tomorrow will be .
, % of the Moon is Illuminated

Today's Extremes

State Highs State Lows

Community

WunderPhotos

Upload Photos

1,791,891 photos uploaded!

WunderBlogs® & News

Nearby

Air Quality

  Air Quality AQ Index Pollutant
Not available.

Snow Depth

Station Depth Elevation

Earthquake Activity

City Distance Mag. Time & Date
Minimum magnitude displayed is 2.5.

Coastal Water Temperatures

Place Temperature

Nearby Weather Stations